Orneville Township, Maine
Current Conditions -  °F | °C
As of 8:53 AM on Saturday 22 Nov 2014 (Local Time) from KMLT Reporting Station
Overcast Overcast  
Wind Chill: 13°   Ceiling: 9000
Heat Index: 20°   Visibility: 10mi
Dew Point: 10°   Wind: 5mph
Humidity: 65%   Direction: NA
Pressure: 30.18"   Gusts: NA
Location:  45.4158°N, 68.8178°W
Report Text: KMLT 221353Z AUTO VRB04KT 10SM OVC090 M07/M12 A3018 RMK AO2 SLP232 T10671122
Loading
Personal Weather Stations






























Interactive Weather Map New forecast layout! Learn more

10-Day Weather Forecast

Advertisements
Track Severe Weather on mobile